sensor_id;sensor_type;location;lat;lon;timestamp;P1;durP1;ratioP1;P2;durP2;ratioP2
18778;SDS011;9518;51.720;14.384;2022-08-03T00:01:42;1999.90;;;999.90;;
18778;SDS011;9518;51.720;14.384;2022-08-03T00:04:10;1999.90;;;999.90;;
18778;SDS011;9518;51.720;14.384;2022-08-03T00:06:37;1999.90;;;999.90;;
18778;SDS011;9518;51.720;14.384;2022-08-03T00:09:05;1999.90;;;999.90;;
18778;SDS011;9518;51.720;14.384;2022-08-03T00:11:32;1999.90;;;999.90;;
18778;SDS011;9518;51.720;14.384;2022-08-03T00:13:59;1999.90;;;999.90;;
18778;SDS011;9518;51.720;14.384;2022-08-03T00:16:26;1999.90;;;999.90;;
18778;SDS011;9518;51.720;14.384;2022-08-03T00:18:53;1999.90;;;999.90;;
18778;SDS011;9518;51.720;14.384;2022-08-03T00:21:20;1999.90;;;999.90;;
18778;SDS011;9518;51.720;14.384;2022-08-03T00:23:47;1999.90;;;999.90;;
18778;SDS011;9518;51.720;14.384;2022-08-03T00:26:15;1999.90;;;999.90;;
18778;SDS011;9518;51.720;14.384;2022-08-03T00:28:42;1999.90;;;999.90;;
18778;SDS011;9518;51.720;14.384;2022-08-03T00:31:09;1999.90;;;999.90;;
18778;SDS011;9518;51.720;14.384;2022-08-03T00:33:36;1999.90;;;999.90;;
18778;SDS011;9518;51.720;14.384;2022-08-03T00:36:03;1999.90;;;999.90;;
18778;SDS011;9518;51.720;14.384;2022-08-03T00:38:30;1999.90;;;999.90;;
18778;SDS011;9518;51.720;14.384;2022-08-03T00:40:57;1999.90;;;999.90;;
18778;SDS011;9518;51.720;14.384;2022-08-03T00:43:25;1999.90;;;999.90;;
18778;SDS011;9518;51.720;14.384;2022-08-03T00:45:52;1999.90;;;999.90;;
18778;SDS011;9518;51.720;14.384;2022-08-03T00:48:19;1999.90;;;999.90;;
18778;SDS011;9518;51.720;14.384;2022-08-03T00:50:46;1999.90;;;999.90;;
18778;SDS011;9518;51.720;14.384;2022-08-03T00:53:18;1999.90;;;999.90;;
18778;SDS011;9518;51.720;14.384;2022-08-03T00:55:45;1999.90;;;999.90;;
18778;SDS011;9518;51.720;14.384;2022-08-03T00:58:12;1999.90;;;999.90;;
18778;SDS011;9518;51.720;14.384;2022-08-03T01:00:40;1999.90;;;999.90;;
18778;SDS011;9518;51.720;14.384;2022-08-03T01:03:08;1999.90;;;999.90;;
18778;SDS011;9518;51.720;14.384;2022-08-03T01:05:38;1999.90;;;999.90;;
18778;SDS011;9518;51.720;14.384;2022-08-03T01:08:12;1999.90;;;999.90;;
18778;SDS011;9518;51.720;14.384;2022-08-03T01:10:50;1999.90;;;999.90;;
18778;SDS011;9518;51.720;14.384;2022-08-03T01:13:23;1999.90;;;999.90;;
18778;SDS011;9518;51.720;14.384;2022-08-03T01:15:58;1147.27;;;651.93;;
18778;SDS011;9518;51.720;14.384;2022-08-03T01:18:30;1999.90;;;999.90;;
18778;SDS011;9518;51.720;14.384;2022-08-03T01:21:02;1999.90;;;999.90;;
18778;SDS011;9518;51.720;14.384;2022-08-03T01:23:43;1999.90;;;999.90;;
18778;SDS011;9518;51.720;14.384;2022-08-03T01:26:23;1999.90;;;999.90;;
18778;SDS011;9518;51.720;14.384;2022-08-03T01:29:07;1999.90;;;999.90;;
18778;SDS011;9518;51.720;14.384;2022-08-03T01:31:49;1999.90;;;999.90;;
18778;SDS011;9518;51.720;14.384;2022-08-03T01:34:20;1999.90;;;999.90;;
18778;SDS011;9518;51.720;14.384;2022-08-03T01:36:50;1999.90;;;999.90;;
18778;SDS011;9518;51.720;14.384;2022-08-03T01:39:21;1572.90;;;827.50;;
18778;SDS011;9518;51.720;14.384;2022-08-03T01:41:52;1293.33;;;893.83;;
18778;SDS011;9518;51.720;14.384;2022-08-03T01:44:23;703.50;;;647.10;;
18778;SDS011;9518;51.720;14.384;2022-08-03T01:46:55;668.40;;;619.80;;
18778;SDS011;9518;51.720;14.384;2022-08-03T01:49:24;905.30;;;831.90;;
18778;SDS011;9518;51.720;14.384;2022-08-03T01:51:53;637.37;;;593.43;;
18778;SDS011;9518;51.720;14.384;2022-08-03T01:54:22;899.67;;;829.07;;
18778;SDS011;9518;51.720;14.384;2022-08-03T01:56:50;787.93;;;730.40;;
18778;SDS011;9518;51.720;14.384;2022-08-03T01:59:18;595.83;;;558.83;;
18778;SDS011;9518;51.720;14.384;2022-08-03T02:01:47;580.90;;;542.07;;
18778;SDS011;9518;51.720;14.384;2022-08-03T02:04:17;853.33;;;788.97;;
18778;SDS011;9518;51.720;14.384;2022-08-03T02:06:45;1999.90;;;999.90;;
18778;SDS011;9518;51.720;14.384;2022-08-03T02:09:14;681.33;;;625.57;;
18778;SDS011;9518;51.720;14.384;2022-08-03T02:11:42;546.47;;;513.60;;
18778;SDS011;9518;51.720;14.384;2022-08-03T02:14:11;649.03;;;607.87;;
18778;SDS011;9518;51.720;14.384;2022-08-03T02:16:41;856.60;;;791.60;;
18778;SDS011;9518;51.720;14.384;2022-08-03T02:19:09;795.50;;;737.07;;
18778;SDS011;9518;51.720;14.384;2022-08-03T02:21:38;787.57;;;731.00;;
18778;SDS011;9518;51.720;14.384;2022-08-03T02:24:08;734.27;;;675.77;;
18778;SDS011;9518;51.720;14.384;2022-08-03T02:26:36;776.90;;;717.90;;
18778;SDS011;9518;51.720;14.384;2022-08-03T02:29:06;745.97;;;693.27;;
18778;SDS011;9518;51.720;14.384;2022-08-03T02:31:46;733.13;;;681.40;;
18778;SDS011;9518;51.720;14.384;2022-08-03T02:34:15;745.43;;;690.67;;
18778;SDS011;9518;51.720;14.384;2022-08-03T02:36:48;455.57;;;429.27;;
18778;SDS011;9518;51.720;14.384;2022-08-03T02:39:18;937.43;;;765.30;;
18778;SDS011;9518;51.720;14.384;2022-08-03T02:41:48;1098.87;;;875.87;;
18778;SDS011;9518;51.720;14.384;2022-08-03T02:44:17;966.73;;;857.17;;
18778;SDS011;9518;51.720;14.384;2022-08-03T02:46:48;657.30;;;605.93;;
18778;SDS011;9518;51.720;14.384;2022-08-03T02:49:21;947.17;;;801.07;;
18778;SDS011;9518;51.720;14.384;2022-08-03T02:51:51;611.63;;;566.33;;
18778;SDS011;9518;51.720;14.384;2022-08-03T02:54:21;926.07;;;824.57;;
18778;SDS011;9518;51.720;14.384;2022-08-03T02:56:50;1999.90;;;999.90;;
18778;SDS011;9518;51.720;14.384;2022-08-03T02:59:19;1999.90;;;999.90;;
18778;SDS011;9518;51.720;14.384;2022-08-03T03:01:47;1999.90;;;999.90;;
18778;SDS011;9518;51.720;14.384;2022-08-03T03:04:15;1999.90;;;999.90;;
18778;SDS011;9518;51.720;14.384;2022-08-03T03:06:42;1999.90;;;999.90;;
18778;SDS011;9518;51.720;14.384;2022-08-03T03:09:12;1999.90;;;999.90;;
18778;SDS011;9518;51.720;14.384;2022-08-03T03:11:39;1999.90;;;999.90;;
18778;SDS011;9518;51.720;14.384;2022-08-03T03:14:06;1999.90;;;999.90;;
18778;SDS011;9518;51.720;14.384;2022-08-03T03:16:37;1999.90;;;999.90;;
18778;SDS011;9518;51.720;14.384;2022-08-03T03:19:05;889.00;;;805.53;;
18778;SDS011;9518;51.720;14.384;2022-08-03T03:21:33;1999.90;;;999.90;;
18778;SDS011;9518;51.720;14.384;2022-08-03T03:24:02;769.53;;;703.43;;
18778;SDS011;9518;51.720;14.384;2022-08-03T03:26:32;900.20;;;810.93;;
18778;SDS011;9518;51.720;14.384;2022-08-03T03:29:00;1999.90;;;999.90;;
18778;SDS011;9518;51.720;14.384;2022-08-03T03:31:28;1999.90;;;999.90;;
18778;SDS011;9518;51.720;14.384;2022-08-03T03:33:56;1614.60;;;842.67;;
18778;SDS011;9518;51.720;14.384;2022-08-03T03:36:23;1661.53;;;943.80;;
18778;SDS011;9518;51.720;14.384;2022-08-03T03:38:50;1999.90;;;999.90;;
18778;SDS011;9518;51.720;14.384;2022-08-03T03:41:17;1999.90;;;999.90;;
18778;SDS011;9518;51.720;14.384;2022-08-03T03:43:45;1999.90;;;999.90;;
18778;SDS011;9518;51.720;14.384;2022-08-03T03:46:14;1999.90;;;999.90;;
18778;SDS011;9518;51.720;14.384;2022-08-03T03:48:41;1999.90;;;999.90;;
18778;SDS011;9518;51.720;14.384;2022-08-03T03:51:09;854.63;;;727.87;;
18778;SDS011;9518;51.720;14.384;2022-08-03T03:53:36;1999.90;;;999.90;;
18778;SDS011;9518;51.720;14.384;2022-08-03T03:56:03;1999.90;;;999.90;;
18778;SDS011;9518;51.720;14.384;2022-08-03T03:58:30;1999.90;;;999.90;;
18778;SDS011;9518;51.720;14.384;2022-08-03T04:00:59;1999.90;;;999.90;;
18778;SDS011;9518;51.720;14.384;2022-08-03T04:03:26;1999.90;;;999.90;;
18778;SDS011;9518;51.720;14.384;2022-08-03T04:05:53;453.80;;;424.53;;
18778;SDS011;9518;51.720;14.384;2022-08-03T04:08:38;602.13;;;554.50;;
18778;SDS011;9518;51.720;14.384;2022-08-03T04:11:38;1999.90;;;999.90;;
18778;SDS011;9518;51.720;14.384;2022-08-03T04:14:10;515.00;;;479.30;;
18778;SDS011;9518;51.720;14.384;2022-08-03T04:16:41;289.17;;;275.13;;
18778;SDS011;9518;51.720;14.384;2022-08-03T04:19:13;311.73;;;294.87;;
18778;SDS011;9518;51.720;14.384;2022-08-03T04:21:43;300.37;;;284.50;;
18778;SDS011;9518;51.720;14.384;2022-08-03T04:24:14;314.97;;;299.53;;
18778;SDS011;9518;51.720;14.384;2022-08-03T04:26:42;403.37;;;379.10;;
18778;SDS011;9518;51.720;14.384;2022-08-03T04:29:11;725.43;;;658.80;;
18778;SDS011;9518;51.720;14.384;2022-08-03T04:31:42;323.77;;;306.03;;
18778;SDS011;9518;51.720;14.384;2022-08-03T04:34:11;419.40;;;397.93;;
18778;SDS011;9518;51.720;14.384;2022-08-03T04:36:39;1999.90;;;999.90;;
18778;SDS011;9518;51.720;14.384;2022-08-03T04:39:17;1999.90;;;999.90;;
18778;SDS011;9518;51.720;14.384;2022-08-03T04:41:50;1999.90;;;999.90;;
18778;SDS011;9518;51.720;14.384;2022-08-03T04:44:19;1999.90;;;999.90;;
18778;SDS011;9518;51.720;14.384;2022-08-03T04:46:50;1999.90;;;999.90;;
18778;SDS011;9518;51.720;14.384;2022-08-03T04:49:18;1999.90;;;999.90;;
18778;SDS011;9518;51.720;14.384;2022-08-03T04:51:46;1999.90;;;999.90;;
18778;SDS011;9518;51.720;14.384;2022-08-03T04:54:14;1999.90;;;999.90;;
18778;SDS011;9518;51.720;14.384;2022-08-03T04:56:41;1999.90;;;999.90;;
18778;SDS011;9518;51.720;14.384;2022-08-03T04:59:08;1999.90;;;999.90;;
18778;SDS011;9518;51.720;14.384;2022-08-03T05:01:36;1999.90;;;999.90;;
18778;SDS011;9518;51.720;14.384;2022-08-03T05:04:04;1999.90;;;999.90;;
18778;SDS011;9518;51.720;14.384;2022-08-03T05:06:31;1999.90;;;999.90;;
18778;SDS011;9518;51.720;14.384;2022-08-03T05:08:58;1999.90;;;999.90;;
18778;SDS011;9518;51.720;14.384;2022-08-03T05:11:25;1999.90;;;999.90;;
18778;SDS011;9518;51.720;14.384;2022-08-03T05:13:53;1999.90;;;999.90;;
18778;SDS011;9518;51.720;14.384;2022-08-03T05:16:20;1999.90;;;999.90;;
18778;SDS011;9518;51.720;14.384;2022-08-03T05:18:47;1999.90;;;999.90;;
18778;SDS011;9518;51.720;14.384;2022-08-03T05:21:15;1999.90;;;999.90;;
18778;SDS011;9518;51.720;14.384;2022-08-03T05:23:42;1999.90;;;999.90;;
18778;SDS011;9518;51.720;14.384;2022-08-03T05:26:09;1999.90;;;999.90;;
18778;SDS011;9518;51.720;14.384;2022-08-03T05:28:36;1999.90;;;999.90;;
18778;SDS011;9518;51.720;14.384;2022-08-03T05:31:03;1999.90;;;999.90;;
18778;SDS011;9518;51.720;14.384;2022-08-03T05:33:30;1999.90;;;999.90;;
18778;SDS011;9518;51.720;14.384;2022-08-03T05:35:57;1999.90;;;999.90;;
18778;SDS011;9518;51.720;14.384;2022-08-03T05:38:26;1999.90;;;999.90;;
18778;SDS011;9518;51.720;14.384;2022-08-03T05:40:53;1999.90;;;999.90;;
18778;SDS011;9518;51.720;14.384;2022-08-03T05:43:20;1999.90;;;999.90;;
18778;SDS011;9518;51.720;14.384;2022-08-03T05:45:47;1999.90;;;999.90;;
18778;SDS011;9518;51.720;14.384;2022-08-03T05:48:14;1999.90;;;999.90;;
18778;SDS011;9518;51.720;14.384;2022-08-03T05:50:40;1999.90;;;999.90;;
18778;SDS011;9518;51.720;14.384;2022-08-03T05:53:07;1999.90;;;999.90;;
18778;SDS011;9518;51.720;14.384;2022-08-03T05:55:35;1999.90;;;999.90;;
18778;SDS011;9518;51.720;14.384;2022-08-03T05:58:02;1999.90;;;999.90;;
18778;SDS011;9518;51.720;14.384;2022-08-03T06:00:30;1999.90;;;999.90;;
18778;SDS011;9518;51.720;14.384;2022-08-03T06:02:57;1999.90;;;999.90;;
18778;SDS011;9518;51.720;14.384;2022-08-03T06:05:24;1999.90;;;999.90;;
18778;SDS011;9518;51.720;14.384;2022-08-03T06:07:52;1999.90;;;999.90;;
18778;SDS011;9518;51.720;14.384;2022-08-03T06:10:19;1999.90;;;999.90;;
18778;SDS011;9518;51.720;14.384;2022-08-03T06:12:48;1999.90;;;999.90;;
18778;SDS011;9518;51.720;14.384;2022-08-03T06:15:15;1999.90;;;999.90;;
18778;SDS011;9518;51.720;14.384;2022-08-03T06:17:45;1999.90;;;999.90;;
18778;SDS011;9518;51.720;14.384;2022-08-03T06:20:14;1999.90;;;999.90;;
18778;SDS011;9518;51.720;14.384;2022-08-03T06:22:42;1999.90;;;999.90;;
18778;SDS011;9518;51.720;14.384;2022-08-03T06:25:09;1999.90;;;999.90;;
18778;SDS011;9518;51.720;14.384;2022-08-03T06:27:36;1999.90;;;999.90;;
18778;SDS011;9518;51.720;14.384;2022-08-03T06:30:08;1999.90;;;999.90;;
18778;SDS011;9518;51.720;14.384;2022-08-03T06:32:36;1999.90;;;999.90;;
18778;SDS011;9518;51.720;14.384;2022-08-03T06:35:04;1999.90;;;999.90;;
18778;SDS011;9518;51.720;14.384;2022-08-03T06:37:40;1999.90;;;999.90;;
18778;SDS011;9518;51.720;14.384;2022-08-03T06:40:08;1999.90;;;999.90;;
18778;SDS011;9518;51.720;14.384;2022-08-03T06:42:36;1999.90;;;999.90;;
18778;SDS011;9518;51.720;14.384;2022-08-03T06:45:03;1999.90;;;999.90;;
18778;SDS011;9518;51.720;14.384;2022-08-03T06:47:33;1999.90;;;999.90;;
18778;SDS011;9518;51.720;14.384;2022-08-03T06:49:59;1999.90;;;999.90;;
18778;SDS011;9518;51.720;14.384;2022-08-03T06:52:27;1999.90;;;999.90;;
18778;SDS011;9518;51.720;14.384;2022-08-03T06:54:54;1999.90;;;999.90;;
18778;SDS011;9518;51.720;14.384;2022-08-03T06:57:21;1999.90;;;999.90;;
18778;SDS011;9518;51.720;14.384;2022-08-03T06:59:48;1999.90;;;999.90;;
18778;SDS011;9518;51.720;14.384;2022-08-03T07:02:15;797.10;;;732.28;;
18778;SDS011;9518;51.720;14.384;2022-08-03T07:04:44;811.85;;;740.05;;
18778;SDS011;9518;51.720;14.384;2022-08-03T07:07:11;887.83;;;810.75;;
18778;SDS011;9518;51.720;14.384;2022-08-03T07:09:39;935.53;;;855.33;;
18778;SDS011;9518;51.720;14.384;2022-08-03T07:12:06;863.20;;;796.67;;
18778;SDS011;9518;51.720;14.384;2022-08-03T07:14:33;874.95;;;810.25;;
18778;SDS011;9518;51.720;14.384;2022-08-03T07:16:59;800.45;;;747.28;;
18778;SDS011;9518;51.720;14.384;2022-08-03T07:19:26;795.33;;;742.05;;
18778;SDS011;9518;51.720;14.384;2022-08-03T07:21:54;758.75;;;710.83;;
18778;SDS011;9518;51.720;14.384;2022-08-03T07:24:21;688.63;;;647.78;;
18778;SDS011;9518;51.720;14.384;2022-08-03T07:26:48;504.55;;;478.98;;
18778;SDS011;9518;51.720;14.384;2022-08-03T07:29:15;490.30;;;465.17;;
18778;SDS011;9518;51.720;14.384;2022-08-03T07:31:42;384.60;;;365.95;;
18778;SDS011;9518;51.720;14.384;2022-08-03T07:34:09;384.10;;;365.85;;
18778;SDS011;9518;51.720;14.384;2022-08-03T07:36:36;370.98;;;353.23;;
18778;SDS011;9518;51.720;14.384;2022-08-03T07:39:04;324.92;;;309.75;;
18778;SDS011;9518;51.720;14.384;2022-08-03T07:41:32;225.38;;;214.90;;
18778;SDS011;9518;51.720;14.384;2022-08-03T07:43:58;243.38;;;231.88;;
18778;SDS011;9518;51.720;14.384;2022-08-03T07:46:25;171.32;;;163.27;;
18778;SDS011;9518;51.720;14.384;2022-08-03T07:48:52;184.45;;;176.10;;
18778;SDS011;9518;51.720;14.384;2022-08-03T07:51:19;159.65;;;152.00;;
18778;SDS011;9518;51.720;14.384;2022-08-03T07:53:46;176.52;;;168.48;;
18778;SDS011;9518;51.720;14.384;2022-08-03T07:56:14;181.55;;;173.23;;
18778;SDS011;9518;51.720;14.384;2022-08-03T07:58:41;204.57;;;195.15;;
18778;SDS011;9518;51.720;14.384;2022-08-03T08:01:08;234.80;;;224.30;;
18778;SDS011;9518;51.720;14.384;2022-08-03T08:03:35;276.48;;;263.65;;
18778;SDS011;9518;51.720;14.384;2022-08-03T08:06:02;279.38;;;266.63;;
18778;SDS011;9518;51.720;14.384;2022-08-03T08:08:29;291.00;;;277.73;;
18778;SDS011;9518;51.720;14.384;2022-08-03T08:10:56;287.02;;;273.90;;
18778;SDS011;9518;51.720;14.384;2022-08-03T08:13:24;326.48;;;311.10;;
18778;SDS011;9518;51.720;14.384;2022-08-03T08:15:51;354.05;;;337.30;;
18778;SDS011;9518;51.720;14.384;2022-08-03T08:18:18;349.98;;;333.48;;
18778;SDS011;9518;51.720;14.384;2022-08-03T08:20:45;356.13;;;339.15;;
18778;SDS011;9518;51.720;14.384;2022-08-03T08:23:12;384.70;;;366.33;;
18778;SDS011;9518;51.720;14.384;2022-08-03T08:25:39;383.63;;;365.45;;
18778;SDS011;9518;51.720;14.384;2022-08-03T08:28:06;379.20;;;360.90;;
18778;SDS011;9518;51.720;14.384;2022-08-03T08:30:34;376.73;;;358.88;;
18778;SDS011;9518;51.720;14.384;2022-08-03T08:33:01;380.92;;;362.98;;
18778;SDS011;9518;51.720;14.384;2022-08-03T08:35:28;378.98;;;361.00;;
18778;SDS011;9518;51.720;14.384;2022-08-03T08:37:54;372.77;;;355.00;;
18778;SDS011;9518;51.720;14.384;2022-08-03T08:40:21;359.40;;;342.63;;
18778;SDS011;9518;51.720;14.384;2022-08-03T08:42:49;361.52;;;344.73;;
18778;SDS011;9518;51.720;14.384;2022-08-03T08:45:16;349.23;;;332.35;;
18778;SDS011;9518;51.720;14.384;2022-08-03T08:47:45;353.15;;;336.95;;
18778;SDS011;9518;51.720;14.384;2022-08-03T08:50:14;359.90;;;343.33;;
18778;SDS011;9518;51.720;14.384;2022-08-03T08:52:45;374.90;;;357.63;;
18778;SDS011;9518;51.720;14.384;2022-08-03T08:55:17;368.73;;;351.73;;
18778;SDS011;9518;51.720;14.384;2022-08-03T08:57:47;367.02;;;350.15;;
18778;SDS011;9518;51.720;14.384;2022-08-03T09:00:15;354.17;;;337.85;;
18778;SDS011;9518;51.720;14.384;2022-08-03T09:02:42;360.25;;;343.40;;
18778;SDS011;9518;51.720;14.384;2022-08-03T09:05:13;360.33;;;343.50;;
18778;SDS011;9518;51.720;14.384;2022-08-03T09:07:41;365.48;;;348.70;;
18778;SDS011;9518;51.720;14.384;2022-08-03T09:10:09;359.38;;;342.63;;
18778;SDS011;9518;51.720;14.384;2022-08-03T09:12:37;370.67;;;353.48;;
18778;SDS011;9518;51.720;14.384;2022-08-03T09:15:15;403.35;;;384.67;;
18778;SDS011;9518;51.720;14.384;2022-08-03T09:17:48;405.33;;;386.30;;
18778;SDS011;9518;51.720;14.384;2022-08-03T09:20:17;400.20;;;381.40;;
18778;SDS011;9518;51.720;14.384;2022-08-03T09:22:51;393.77;;;375.35;;
18778;SDS011;9518;51.720;14.384;2022-08-03T09:25:25;404.15;;;384.95;;
18778;SDS011;9518;51.720;14.384;2022-08-03T09:28:03;395.58;;;376.95;;
18778;SDS011;9518;51.720;14.384;2022-08-03T09:30:34;417.92;;;397.52;;
18778;SDS011;9518;51.720;14.384;2022-08-03T09:33:04;424.00;;;403.80;;
18778;SDS011;9518;51.720;14.384;2022-08-03T09:35:32;417.25;;;397.50;;
18778;SDS011;9518;51.720;14.384;2022-08-03T09:38:11;411.13;;;391.52;;
18778;SDS011;9518;51.720;14.384;2022-08-03T09:40:39;438.48;;;417.20;;
18778;SDS011;9518;51.720;14.384;2022-08-03T09:43:07;469.83;;;447.13;;
18778;SDS011;9518;51.720;14.384;2022-08-03T09:45:34;470.83;;;448.00;;
18778;SDS011;9518;51.720;14.384;2022-08-03T09:48:20;479.20;;;455.80;;
18778;SDS011;9518;51.720;14.384;2022-08-03T09:50:49;528.25;;;501.02;;
18778;SDS011;9518;51.720;14.384;2022-08-03T09:53:17;455.73;;;433.58;;
18778;SDS011;9518;51.720;14.384;2022-08-03T09:55:53;482.83;;;459.08;;
18778;SDS011;9518;51.720;14.384;2022-08-03T09:58:22;501.15;;;476.33;;
18778;SDS011;9518;51.720;14.384;2022-08-03T10:00:59;408.42;;;388.95;;
18778;SDS011;9518;51.720;14.384;2022-08-03T10:03:29;449.85;;;428.20;;
18778;SDS011;9518;51.720;14.384;2022-08-03T10:05:59;437.63;;;416.73;;
18778;SDS011;9518;51.720;14.384;2022-08-03T10:08:40;397.05;;;378.33;;
18778;SDS011;9518;51.720;14.384;2022-08-03T10:11:07;427.23;;;406.85;;
18778;SDS011;9518;51.720;14.384;2022-08-03T10:13:34;369.27;;;351.85;;
18778;SDS011;9518;51.720;14.384;2022-08-03T10:16:02;386.40;;;368.35;;
18778;SDS011;9518;51.720;14.384;2022-08-03T10:18:31;367.77;;;350.55;;
18778;SDS011;9518;51.720;14.384;2022-08-03T10:20:59;374.05;;;356.48;;
18778;SDS011;9518;51.720;14.384;2022-08-03T10:23:30;401.98;;;383.00;;
18778;SDS011;9518;51.720;14.384;2022-08-03T10:26:01;385.80;;;367.58;;
18778;SDS011;9518;51.720;14.384;2022-08-03T10:28:32;442.52;;;421.38;;
18778;SDS011;9518;51.720;14.384;2022-08-03T10:31:00;478.58;;;455.48;;
18778;SDS011;9518;51.720;14.384;2022-08-03T10:33:33;578.10;;;548.25;;
18778;SDS011;9518;51.720;14.384;2022-08-03T10:36:07;1999.90;;;999.90;;
18778;SDS011;9518;51.720;14.384;2022-08-03T10:38:36;1999.90;;;999.90;;
18778;SDS011;9518;51.720;14.384;2022-08-03T10:41:05;1999.90;;;999.90;;
18778;SDS011;9518;51.720;14.384;2022-08-03T10:43:35;1999.90;;;999.90;;
18778;SDS011;9518;51.720;14.384;2022-08-03T10:46:13;1999.90;;;999.90;;
18778;SDS011;9518;51.720;14.384;2022-08-03T10:48:43;1999.90;;;999.90;;
18778;SDS011;9518;51.720;14.384;2022-08-03T10:51:12;1999.90;;;999.90;;
18778;SDS011;9518;51.720;14.384;2022-08-03T10:53:39;1999.90;;;999.90;;
18778;SDS011;9518;51.720;14.384;2022-08-03T11:05:26;1999.90;;;999.90;;
18778;SDS011;9518;51.720;14.384;2022-08-03T11:10:48;1999.90;;;999.90;;
18778;SDS011;9518;51.720;14.384;2022-08-03T11:13:17;1999.90;;;999.90;;
18778;SDS011;9518;51.720;14.384;2022-08-03T11:15:45;1999.90;;;999.90;;
18778;SDS011;9518;51.720;14.384;2022-08-03T11:18:14;1999.90;;;999.90;;
18778;SDS011;9518;51.720;14.384;2022-08-03T11:20:47;1999.90;;;999.90;;
18778;SDS011;9518;51.720;14.384;2022-08-03T11:23:18;1999.90;;;999.90;;
18778;SDS011;9518;51.720;14.384;2022-08-03T11:28:49;1999.90;;;999.90;;
18778;SDS011;9518;51.720;14.384;2022-08-03T11:34:12;1999.90;;;999.90;;
18778;SDS011;9518;51.720;14.384;2022-08-03T11:39:50;1999.90;;;999.90;;
18778;SDS011;9518;51.720;14.384;2022-08-03T11:45:09;1999.90;;;999.90;;
18778;SDS011;9518;51.720;14.384;2022-08-03T11:47:36;1999.90;;;999.90;;
18778;SDS011;9518;51.720;14.384;2022-08-03T11:50:04;1999.90;;;999.90;;
18778;SDS011;9518;51.720;14.384;2022-08-03T11:52:37;1999.90;;;999.90;;
18778;SDS011;9518;51.720;14.384;2022-08-03T11:55:09;1999.90;;;999.90;;
18778;SDS011;9518;51.720;14.384;2022-08-03T11:57:37;1999.90;;;999.90;;
18778;SDS011;9518;51.720;14.384;2022-08-03T12:03:01;1999.90;;;999.90;;
18778;SDS011;9518;51.720;14.384;2022-08-03T12:08:17;1999.90;;;999.90;;
18778;SDS011;9518;51.720;14.384;2022-08-03T12:10:55;1999.90;;;999.90;;
18778;SDS011;9518;51.720;14.384;2022-08-03T12:13:23;1999.90;;;999.90;;
18778;SDS011;9518;51.720;14.384;2022-08-03T12:15:51;1999.90;;;999.90;;
18778;SDS011;9518;51.720;14.384;2022-08-03T12:18:19;1999.90;;;999.90;;
18778;SDS011;9518;51.720;14.384;2022-08-03T12:20:47;1999.90;;;999.90;;
18778;SDS011;9518;51.720;14.384;2022-08-03T12:23:15;1999.90;;;999.90;;
18778;SDS011;9518;51.720;14.384;2022-08-03T12:25:44;1999.90;;;999.90;;
18778;SDS011;9518;51.720;14.384;2022-08-03T12:28:13;1999.90;;;999.90;;
18778;SDS011;9518;51.720;14.384;2022-08-03T12:30:43;1999.90;;;999.90;;
18778;SDS011;9518;51.720;14.384;2022-08-03T12:33:15;1999.90;;;999.90;;
18778;SDS011;9518;51.720;14.384;2022-08-03T12:35:45;1999.90;;;999.90;;
18778;SDS011;9518;51.720;14.384;2022-08-03T12:38:19;1999.90;;;999.90;;
18778;SDS011;9518;51.720;14.384;2022-08-03T12:40:56;1999.90;;;999.90;;
18778;SDS011;9518;51.720;14.384;2022-08-03T12:43:31;1999.90;;;999.90;;
18778;SDS011;9518;51.720;14.384;2022-08-03T12:46:12;1999.90;;;999.90;;
18778;SDS011;9518;51.720;14.384;2022-08-03T12:48:59;1999.90;;;999.90;;
18778;SDS011;9518;51.720;14.384;2022-08-03T12:51:27;1999.90;;;999.90;;
18778;SDS011;9518;51.720;14.384;2022-08-03T12:53:57;1999.90;;;999.90;;
18778;SDS011;9518;51.720;14.384;2022-08-03T12:56:24;1999.90;;;999.90;;
18778;SDS011;9518;51.720;14.384;2022-08-03T12:58:51;1999.90;;;999.90;;
18778;SDS011;9518;51.720;14.384;2022-08-03T13:01:18;1999.90;;;999.90;;
18778;SDS011;9518;51.720;14.384;2022-08-03T13:03:48;1999.90;;;999.90;;
18778;SDS011;9518;51.720;14.384;2022-08-03T13:06:17;1999.90;;;999.90;;
18778;SDS011;9518;51.720;14.384;2022-08-03T13:08:46;1999.90;;;999.90;;
18778;SDS011;9518;51.720;14.384;2022-08-03T13:11:18;1999.90;;;999.90;;
18778;SDS011;9518;51.720;14.384;2022-08-03T13:13:46;1999.90;;;999.90;;
18778;SDS011;9518;51.720;14.384;2022-08-03T13:16:13;1999.90;;;999.90;;
18778;SDS011;9518;51.720;14.384;2022-08-03T13:18:40;1999.90;;;999.90;;
18778;SDS011;9518;51.720;14.384;2022-08-03T13:21:07;1999.90;;;999.90;;
18778;SDS011;9518;51.720;14.384;2022-08-03T13:23:34;1999.90;;;999.90;;
18778;SDS011;9518;51.720;14.384;2022-08-03T13:26:01;1999.90;;;999.90;;
18778;SDS011;9518;51.720;14.384;2022-08-03T13:28:29;1999.90;;;999.90;;
18778;SDS011;9518;51.720;14.384;2022-08-03T13:30:56;1999.90;;;999.90;;
18778;SDS011;9518;51.720;14.384;2022-08-03T13:33:23;1999.90;;;999.90;;
18778;SDS011;9518;51.720;14.384;2022-08-03T13:35:51;1999.90;;;999.90;;
18778;SDS011;9518;51.720;14.384;2022-08-03T13:38:18;1999.90;;;999.90;;
18778;SDS011;9518;51.720;14.384;2022-08-03T13:40:45;1999.90;;;999.90;;
18778;SDS011;9518;51.720;14.384;2022-08-03T13:43:12;1999.90;;;999.90;;
18778;SDS011;9518;51.720;14.384;2022-08-03T13:45:40;1999.90;;;999.90;;
18778;SDS011;9518;51.720;14.384;2022-08-03T13:48:07;1999.90;;;999.90;;
18778;SDS011;9518;51.720;14.384;2022-08-03T13:50:34;1999.90;;;999.90;;
18778;SDS011;9518;51.720;14.384;2022-08-03T13:53:01;1999.90;;;999.90;;
18778;SDS011;9518;51.720;14.384;2022-08-03T13:55:28;1999.90;;;999.90;;
18778;SDS011;9518;51.720;14.384;2022-08-03T13:57:55;1999.90;;;999.90;;
18778;SDS011;9518;51.720;14.384;2022-08-03T14:00:22;1999.90;;;999.90;;
18778;SDS011;9518;51.720;14.384;2022-08-03T14:02:51;1999.90;;;999.90;;
18778;SDS011;9518;51.720;14.384;2022-08-03T14:05:18;1999.90;;;999.90;;
18778;SDS011;9518;51.720;14.384;2022-08-03T14:07:45;1999.90;;;999.90;;
18778;SDS011;9518;51.720;14.384;2022-08-03T14:10:13;1999.90;;;999.90;;
18778;SDS011;9518;51.720;14.384;2022-08-03T14:12:41;1999.90;;;999.90;;
18778;SDS011;9518;51.720;14.384;2022-08-03T14:15:08;1999.90;;;999.90;;
18778;SDS011;9518;51.720;14.384;2022-08-03T14:17:37;1999.90;;;999.90;;
18778;SDS011;9518;51.720;14.384;2022-08-03T14:20:06;1999.90;;;999.90;;
18778;SDS011;9518;51.720;14.384;2022-08-03T14:22:34;1999.90;;;999.90;;
18778;SDS011;9518;51.720;14.384;2022-08-03T14:25:01;1999.90;;;999.90;;
18778;SDS011;9518;51.720;14.384;2022-08-03T14:27:27;1999.90;;;999.90;;
18778;SDS011;9518;51.720;14.384;2022-08-03T14:29:54;1999.90;;;999.90;;